Terminal Aerodrome Forecast
Issued by NWS Austin/San Antonio, TX

Home | Current Version | Previous Version | Text Only | Print | Product List | Glossary On
Versions: 1 2 3 4 5 6 7 8 9 10 11 12 13 14 15 16 17 18 19
000
FTUS44 KEWX 282338
TAFDRT
TAF
KDRT 282338Z 2900/2924 13013G20KT P6SM FEW045
     FM290200 12012KT 6SM -SHRA BKN035
      TEMPO 2902/2906 VRB30KT 2SM +TSRA OVC030CB
     FM290800 12010KT P6SM OVC015
     FM291700 14013KT P6SM SCT025=

USA.gov is the U.S. government's official web portal to all federal, state and local government web resources and services.